Time;durP1;ratioP1;P1;durP2;ratioP2;P2;SDS_P1;SDS_P2;PMS_P1;PMS_P2;Temp;Humidity;BMP_temperature;BMP_pressure;BME280_temperature;BME280_humidity;BME280_pressure;Samples;Min_cycle;Max_cycle;Signal;HPM_P1;HPM_P2
2022/12/01 00:01:15;;;;;;;17.33;7.43;;;;;;;7.81;59.61;100388.12;4397085;32;20116;-89
2022/12/01 00:03:41;;;;;;;14.05;6.65;;;;;;;7.70;59.61;100393.37;4410788;32;20098;-88
2022/12/01 00:06:09;;;;;;;18.25;7.28;;;;;;;7.67;59.61;100390.84;4391391;32;20161;-88
2022/12/01 00:08:35;;;;;;;15.52;7.20;;;;;;;7.57;59.61;100393.50;4427542;32;20149;-89
2022/12/01 00:11:13;;;;;;;16.73;7.30;;;;;;;7.56;59.60;100394.38;4398800;32;20140;-90
2022/12/01 00:13:38;;;;;;;16.17;7.40;;;;;;;7.46;59.59;100397.94;4397716;32;20110;-90
2022/12/01 00:16:14;;;;;;;15.77;6.28;;;;;;;7.51;59.60;100394.44;4399322;32;36782;-89
2022/12/01 00:18:39;;;;;;;16.52;7.68;;;;;;;7.56;59.61;100387.47;4397943;32;20694;-89
2022/12/01 00:21:05;;;;;;;15.40;6.93;;;;;;;7.54;59.59;100393.53;4397615;32;20137;-89
2022/12/01 00:23:30;;;;;;;15.52;7.20;;;;;;;7.39;59.59;100397.16;4412816;32;20132;-89
2022/12/01 00:26:04;;;;;;;17.42;6.82;;;;;;;7.32;59.60;100390.28;4387195;32;37054;-90
2022/12/01 00:28:29;;;;;;;12.25;6.53;;;;;;;7.24;59.58;100392.09;4428171;32;20093;-90
2022/12/01 00:30:55;;;;;;;14.85;6.32;;;;;;;7.21;59.58;100395.56;4415774;32;20136;-90
2022/12/01 00:33:20;;;;;;;15.02;6.97;;;;;;;7.14;59.58;100400.81;4414240;32;30679;-89
2022/12/01 00:35:45;;;;;;;14.85;6.80;;;;;;;7.26;59.59;100405.88;4414610;32;37328;-92
2022/12/01 00:38:11;;;;;;;12.57;7.25;;;;;;;7.11;59.58;100406.03;4414826;32;23677;-92
2022/12/01 00:40:36;;;;;;;17.17;6.85;;;;;;;7.07;59.57;100408.59;4415012;32;22761;-91
2022/12/01 00:43:01;;;;;;;17.08;7.30;;;;;;;7.03;59.58;100406.06;4414844;32;36844;-92
2022/12/01 00:45:27;;;;;;;17.35;7.65;;;;;;;7.04;59.58;100407.78;4414816;32;23137;-91
2022/12/01 00:47:52;;;;;;;15.40;7.50;;;;;;;6.95;59.57;100403.53;4415253;32;20085;-92
2022/12/01 00:50:17;;;;;;;14.27;6.82;;;;;;;6.98;59.57;100407.81;4410080;32;24588;-92
2022/12/01 00:52:43;;;;;;;16.70;7.35;;;;;;;6.87;59.56;100407.91;4396680;32;35089;-91
2022/12/01 00:55:08;;;;;;;17.05;7.65;;;;;;;6.71;59.55;100411.44;4400170;32;32687;-91
2022/12/01 00:57:33;;;;;;;18.50;7.72;;;;;;;6.77;59.56;100411.41;4401683;32;37406;-91
2022/12/01 00:59:59;;;;;;;16.20;7.37;;;;;;;6.60;59.55;100418.38;4405044;32;20176;-91
2022/12/01 01:02:24;;;;;;;13.23;6.87;;;;;;;6.56;59.54;100420.13;4409652;32;35954;-92
2022/12/01 01:04:49;;;;;;;13.77;7.62;;;;;;;6.61;59.55;100413.19;4407002;32;36947;-90
2022/12/01 01:07:15;;;;;;;13.90;7.10;;;;;;;6.41;59.54;100417.66;4413975;32;35379;-91
2022/12/01 01:09:40;;;;;;;18.52;7.32;;;;;;;6.46;59.54;100416.75;4415166;32;20121;-90
2022/12/01 01:12:06;;;;;;;17.48;7.28;;;;;;;6.27;59.54;100420.28;4414173;32;32760;-91
2022/12/01 01:14:31;;;;;;;16.00;7.70;;;;;;;6.20;59.53;100413.41;4434794;32;33767;-91
2022/12/01 01:16:56;;;;;;;15.38;7.68;;;;;;;6.35;59.54;100410.75;4408685;32;36496;-90
2022/12/01 01:19:22;;;;;;;14.27;7.18;;;;;;;6.20;59.53;100413.41;4414496;32;21641;-90
2022/12/01 01:21:48;;;;;;;15.50;7.20;;;;;;;6.28;59.54;100415.97;4414830;32;20156;-90
2022/12/01 01:24:14;;;;;;;18.25;7.60;;;;;;;6.11;59.51;100411.69;4413881;32;39440;-90
2022/12/01 01:26:39;;;;;;;17.65;8.27;;;;;;;6.05;59.51;100410.88;4415029;32;20080;-90
2022/12/01 01:29:06;;;;;;;16.50;8.13;;;;;;;6.05;59.51;100416.91;4414443;32;32447;-90
2022/12/01 01:31:32;;;;;;;15.43;7.55;;;;;;;6.06;59.52;100415.16;4402912;32;20122;-89
2022/12/01 01:33:57;;;;;;;16.52;6.78;;;;;;;6.14;59.53;100403.06;4414441;32;20115;-89
2022/12/01 01:36:23;;;;;;;17.10;7.22;;;;;;;6.18;59.52;100404.81;4402243;32;20088;-90
2022/12/01 01:38:52;;;;;;;15.23;7.22;;;;;;;5.97;59.51;100402.28;4405058;32;20102;-90
2022/12/01 01:41:18;;;;;;;17.37;7.30;;;;;;;5.84;59.51;100411.75;4406824;32;20106;-90
2022/12/01 01:43:46;;;;;;;19.55;8.60;;;;;;;5.89;59.51;100409.16;4387067;32;20081;-90
2022/12/01 01:46:16;;;;;;;16.77;7.68;;;;;;;5.80;59.50;100403.16;4426275;32;20137;-88
2022/12/01 01:48:44;;;;;;;16.60;7.80;;;;;;;5.90;59.52;100401.44;4402065;32;20474;-92
2022/12/01 01:51:10;;;;;;;16.10;7.70;;;;;;;5.80;59.50;100410.91;4406861;32;20224;-93
2022/12/01 01:53:35;;;;;;;18.58;7.82;;;;;;;5.68;59.49;100415.22;4410504;32;20506;-92
2022/12/01 01:56:02;;;;;;;18.58;8.50;;;;;;;5.70;59.50;100414.38;4396254;32;36788;-92
2022/12/01 01:58:27;;;;;;;18.75;8.63;;;;;;;5.77;59.51;100418.66;4410729;32;20121;-91
2022/12/01 02:00:52;;;;;;;18.02;8.10;;;;;;;5.69;59.51;100416.97;4413808;32;35940;-91
2022/12/01 02:03:18;;;;;;;16.60;7.60;;;;;;;5.72;59.50;100416.94;4414749;32;20081;-92
2022/12/01 02:05:43;;;;;;;16.73;8.52;;;;;;;5.62;59.50;100423.84;4400925;32;20107;-92
2022/12/01 02:08:11;;;;;;;17.08;7.72;;;;;;;5.52;59.49;100414.38;4384391;32;20505;-92
2022/12/01 02:10:39;;;;;;;20.50;8.55;;;;;;;5.45;59.48;100416.13;4398790;32;20114;-92
2022/12/01 02:13:11;;;;;;;16.10;8.10;;;;;;;5.47;59.48;100409.25;4426499;32;20085;-95
2022/12/01 02:15:45;;;;;;;16.77;7.50;;;;;;;5.47;59.48;100411.81;4430202;32;20141;-95
2022/12/01 02:18:44;;;;;;;16.52;8.10;;;;;;;5.42;59.48;100410.94;4428297;32;20112;-95
2022/12/01 02:21:31;;;;;;;16.17;8.27;;;;;;;5.57;59.49;100412.66;4412755;32;20101;-95
2022/12/01 02:24:21;;;;;;;18.95;8.27;;;;;;;5.55;59.49;100414.38;4425911;32;20086;-95
2022/12/01 02:27:06;;;;;;;18.52;8.32;;;;;;;5.46;59.48;100409.25;4412818;32;20086;-95
2022/12/01 02:30:03;;;;;;;14.77;7.53;;;;;;;5.46;59.49;100415.25;4413286;32;20141;-96
2022/12/01 02:32:39;;;;;;;18.23;8.50;;;;;;;5.39;59.49;100410.94;4427010;32;20135;-95
2022/12/01 02:35:19;;;;;;;17.30;7.68;;;;;;;5.34;59.48;100410.09;4428151;32;20085;-96
2022/12/01 02:38:03;;;;;;;21.12;8.48;;;;;;;5.30;59.47;100407.50;4412848;32;20073;-95
2022/12/01 02:40:31;;;;;;;17.73;7.40;;;;;;;5.14;59.46;100411.81;4403993;32;20128;-95
2022/12/01 02:43:04;;;;;;;18.92;7.75;;;;;;;5.06;59.46;100404.06;4425438;32;20481;-94
2022/12/01 02:45:42;;;;;;;24.25;8.30;;;;;;;4.88;59.45;100404.91;4415061;32;20105;-95
2022/12/01 02:48:11;;;;;;;21.77;9.77;;;;;;;5.04;59.46;100403.22;4428887;32;20120;-95
2022/12/01 02:50:36;;;;;;;18.95;8.82;;;;;;;4.96;59.45;100404.91;4424742;32;20101;-92
2022/12/01 02:53:02;;;;;;;16.70;7.97;;;;;;;4.97;59.45;100409.22;4409221;32;27404;-92
2022/12/01 02:55:27;;;;;;;16.83;8.55;;;;;;;4.98;59.45;100404.94;4425103;32;37217;-92
2022/12/01 02:57:53;;;;;;;16.23;7.82;;;;;;;4.95;59.46;100403.19;4400940;32;20113;-92
2022/12/01 03:00:18;;;;;;;19.17;8.57;;;;;;;4.98;59.45;100403.22;4401145;32;20097;-90
2022/12/01 03:03:10;;;;;;;17.55;7.68;;;;;;;4.89;59.45;100408.34;4405726;32;37377;-92
2022/12/01 03:05:43;;;;;;;22.02;8.40;;;;;;;4.97;59.46;100409.22;4402749;32;20108;-92
2022/12/01 03:08:12;;;;;;;16.42;7.43;;;;;;;4.86;59.44;100398.88;4412806;32;20814;-92
2022/12/01 03:10:54;;;;;;;18.30;8.50;;;;;;;4.95;59.46;100405.75;4427317;32;20124;-92
2022/12/01 03:13:45;;;;;;;21.30;8.73;;;;;;;4.93;59.45;100407.47;4426006;32;20101;-92
2022/12/01 03:16:29;;;;;;;17.20;8.20;;;;;;;4.86;59.45;100401.47;4413397;32;20158;-91
2022/12/01 03:19:04;;;;;;;18.27;7.72;;;;;;;5.02;59.46;100404.06;4413227;32;20070;-91
2022/12/01 03:22:00;;;;;;;21.62;7.90;;;;;;;4.93;59.45;100404.91;4410839;32;20158;-91
2022/12/01 03:24:28;;;;;;;18.35;8.38;;;;;;;4.81;59.45;100398.03;4437293;32;20157;-92
2022/12/01 03:26:55;;;;;;;16.77;8.27;;;;;;;4.97;59.45;100396.34;4413406;32;20120;-91
2022/12/01 03:29:24;;;;;;;18.80;7.68;;;;;;;4.82;59.45;100391.12;4402571;32;20705;-91
2022/12/01 03:31:53;;;;;;;17.70;7.43;;;;;;;4.82;59.45;100393.72;4415844;32;20093;-92
2022/12/01 03:34:26;;;;;;;17.25;7.65;;;;;;;4.95;59.46;100387.69;4415573;32;20132;-92
2022/12/01 03:36:54;;;;;;;20.15;7.35;;;;;;;4.91;59.45;100385.97;4428324;32;20089;-91
2022/12/01 03:39:22;;;;;;;16.60;7.53;;;;;;;5.05;59.46;100391.16;4415443;32;20057;-92
2022/12/01 03:41:55;;;;;;;16.60;7.25;;;;;;;4.97;59.45;100380.84;4415831;32;20608;-92
2022/12/01 03:44:23;;;;;;;19.15;8.32;;;;;;;4.96;59.45;100383.41;4416311;32;20101;-95
2022/12/01 03:46:52;;;;;;;17.50;7.80;;;;;;;4.88;59.46;100383.41;4415613;32;20153;-95
2022/12/01 03:49:18;;;;;;;20.77;9.32;;;;;;;5.00;59.45;100383.44;4428502;32;20093;-93
2022/12/01 03:51:59;;;;;;;19.85;9.05;;;;;;;5.00;59.46;100380.84;4415542;32;20155;-92
2022/12/01 03:54:36;;;;;;;17.73;8.75;;;;;;;5.00;59.45;100373.09;4421844;32;20458;-95
2022/12/01 03:57:04;;;;;;;17.40;7.85;;;;;;;4.98;59.45;100374.84;4393215;32;20196;-96
2022/12/01 03:59:29;;;;;;;21.42;7.25;;;;;;;4.92;59.45;100370.50;4429270;32;20104;-96
2022/12/01 04:01:56;;;;;;;15.32;7.32;;;;;;;4.82;59.45;100362.78;4413405;32;27093;-94
2022/12/01 04:04:21;;;;;;;17.10;7.15;;;;;;;4.83;59.44;100360.19;4415797;32;20109;-93
2022/12/01 04:06:47;;;;;;;15.73;6.95;;;;;;;4.75;59.45;100359.34;4415919;32;20143;-94
2022/12/01 04:09:13;;;;;;;17.80;7.15;;;;;;;4.79;59.45;100358.47;4424846;32;20085;-94
2022/12/01 04:14:23;;;;;;;19.20;7.18;;;;;;;4.72;59.45;100353.28;4404678;32;20535;-93
2022/12/01 04:16:48;;;;;;;13.62;7.25;;;;;;;4.70;59.44;100348.13;4425499;32;33755;-92
2022/12/01 04:19:13;;;;;;;16.12;7.20;;;;;;;4.66;59.44;100348.13;4397691;32;27959;-93
2022/12/01 04:21:39;;;;;;;16.15;7.75;;;;;;;4.52;59.43;100346.41;4399736;32;31276;-94
2022/12/01 04:24:04;;;;;;;16.00;8.02;;;;;;;4.66;59.44;100348.13;4399071;32;20146;-93
2022/12/01 04:26:31;;;;;;;14.87;7.22;;;;;;;4.57;59.44;100348.97;4415218;32;20142;-94
2022/12/01 04:28:58;;;;;;;16.92;7.82;;;;;;;4.56;59.43;100373.03;4415419;32;20181;-93
2022/12/01 04:31:23;;;;;;;16.05;7.28;;;;;;;4.65;59.44;100385.09;4415855;32;20487;-91
2022/12/01 04:33:49;;;;;;;16.23;6.90;;;;;;;4.60;59.44;100390.22;4406728;32;30803;-91
2022/12/01 04:36:14;;;;;;;15.75;7.18;;;;;;;4.72;59.45;100391.97;4401043;32;20128;-91
2022/12/01 04:38:40;;;;;;;15.52;6.75;;;;;;;4.72;59.43;100391.97;4406390;32;33295;-91
2022/12/01 04:41:09;;;;;;;16.67;6.65;;;;;;;4.79;59.45;100385.97;4401882;32;35608;-91
2022/12/01 04:43:34;;;;;;;14.65;6.72;;;;;;;4.83;59.45;100385.13;4415268;32;20162;-92
2022/12/01 04:46:00;;;;;;;19.75;7.47;;;;;;;4.83;59.44;100385.97;4401712;32;20094;-91
2022/12/01 04:48:25;;;;;;;17.12;6.78;;;;;;;4.78;59.44;100371.38;4398825;32;37058;-92
2022/12/01 04:50:50;;;;;;;16.10;7.22;;;;;;;4.77;59.44;100379.97;4399333;32;31182;-91
2022/12/01 04:53:16;;;;;;;15.85;7.00;;;;;;;4.74;59.45;100380.81;4399188;32;37722;-91
2022/12/01 04:55:41;;;;;;;14.70;7.50;;;;;;;4.75;59.45;100395.44;4386546;32;32544;-92
2022/12/01 04:58:07;;;;;;;13.80;5.93;;;;;;;4.71;59.44;100400.56;4396111;32;32210;-90
2022/12/01 05:00:32;;;;;;;16.17;6.65;;;;;;;4.68;59.44;100410.88;4412387;32;33228;-92
2022/12/01 05:02:58;;;;;;;16.12;6.82;;;;;;;4.75;59.45;100404.88;4400443;32;20109;-93
2022/12/01 05:05:23;;;;;;;19.70;7.82;;;;;;;4.78;59.44;100410.06;4400927;32;20108;-92
2022/12/01 05:07:49;;;;;;;19.27;8.05;;;;;;;4.74;59.45;100413.50;4414163;32;20466;-93
2022/12/01 05:10:14;;;;;;;18.42;7.45;;;;;;;4.66;59.44;100418.59;4414816;32;23002;-93
2022/12/01 05:12:40;;;;;;;14.65;7.28;;;;;;;4.78;59.44;100413.50;4416798;32;20158;-93
2022/12/01 05:15:06;;;;;;;14.45;6.60;;;;;;;4.83;59.44;100400.59;4415216;32;20135;-92
2022/12/01 05:17:32;;;;;;;18.45;7.62;;;;;;;4.72;59.44;100400.56;4427538;32;20093;-93
2022/12/01 05:22:41;;;;;;;16.10;6.65;;;;;;;4.82;59.45;100389.41;4419315;32;20799;-91
2022/12/01 05:25:07;;;;;;;16.10;6.90;;;;;;;4.71;59.44;100405.72;4414159;32;35737;-93
2022/12/01 05:27:32;;;;;;;18.77;7.93;;;;;;;4.68;59.44;100403.13;4441675;32;20101;-93
2022/12/01 05:29:57;;;;;;;18.37;7.45;;;;;;;4.73;59.44;100398.84;4402168;32;38241;-93
2022/12/01 05:32:23;;;;;;;16.37;7.07;;;;;;;4.48;59.42;100398.78;4401623;32;36745;-91
2022/12/01 05:34:48;;;;;;;20.52;6.97;;;;;;;4.44;59.43;100393.63;4403848;32;36658;-91
2022/12/01 05:37:13;;;;;;;19.30;7.53;;;;;;;4.44;59.43;100404.78;4406067;32;34174;-91
2022/12/01 05:39:39;;;;;;;17.02;7.85;;;;;;;4.57;59.42;100400.53;4403957;32;24936;-91
2022/12/01 05:42:04;;;;;;;18.50;8.00;;;;;;;4.57;59.42;100403.13;4408563;32;20462;-91
2022/12/01 05:44:30;;;;;;;19.05;8.02;;;;;;;4.25;59.41;100416.75;4412472;32;20143;-91
2022/12/01 05:46:55;;;;;;;17.62;8.40;;;;;;;4.21;59.42;100409.00;4399572;32;20102;-89
2022/12/01 05:49:21;;;;;;;16.20;7.22;;;;;;;4.25;59.41;100409.00;4384429;32;20132;-91
2022/12/01 05:51:46;;;;;;;18.77;8.30;;;;;;;4.35;59.43;100404.75;4399119;32;20110;-91
2022/12/01 05:54:11;;;;;;;20.02;8.00;;;;;;;4.19;59.41;100410.72;4404134;32;33919;-92
2022/12/01 05:56:37;;;;;;;21.62;8.70;;;;;;;4.17;59.41;100417.56;4414166;32;24357;-91
2022/12/01 05:59:02;;;;;;;22.70;8.13;;;;;;;4.42;59.42;100418.53;4414203;32;20109;-90
2022/12/01 06:01:27;;;;;;;15.55;7.55;;;;;;;4.26;59.41;100423.66;4415042;32;38169;-91
2022/12/01 06:03:53;;;;;;;20.35;9.20;;;;;;;3.96;59.39;100426.91;4415842;32;24679;-92
2022/12/01 06:06:18;;;;;;;19.83;8.60;;;;;;;3.87;59.39;100429.44;4410083;32;20103;-91
2022/12/01 06:08:44;;;;;;;20.35;8.60;;;;;;;3.92;59.40;100430.31;4411137;32;20093;-91
2022/12/01 06:11:09;;;;;;;18.65;7.85;;;;;;;3.84;59.39;100436.28;4414166;32;27821;-91
2022/12/01 06:13:35;;;;;;;20.92;8.30;;;;;;;3.82;59.39;100436.28;4413902;32;26975;-91
2022/12/01 06:16:02;;;;;;;19.90;8.35;;;;;;;3.81;59.39;100438.84;4414833;32;20117;-91
2022/12/01 06:18:32;;;;;;;18.92;8.43;;;;;;;3.77;59.39;100442.22;4414609;32;20105;-91
2022/12/01 06:20:57;;;;;;;20.05;8.77;;;;;;;3.70;59.38;100441.34;4414551;32;20105;-91
2022/12/01 06:23:23;;;;;;;21.45;8.07;;;;;;;3.71;59.38;100448.22;4403657;32;33642;-91
2022/12/01 06:25:48;;;;;;;19.33;8.40;;;;;;;3.68;59.37;100450.75;4408814;32;38142;-91
2022/12/01 06:28:14;;;;;;;17.90;7.97;;;;;;;3.54;59.38;100444.66;4403227;32;37376;-92
2022/12/01 06:30:39;;;;;;;21.85;8.43;;;;;;;3.48;59.37;100449.75;4413627;32;30604;-91
2022/12/01 06:33:05;;;;;;;23.52;9.02;;;;;;;3.55;59.37;100442.09;4413227;32;37199;-92
2022/12/01 06:35:32;;;;;;;22.62;8.65;;;;;;;3.65;59.38;100443.03;4413784;32;28602;-92
2022/12/01 06:37:58;;;;;;;24.58;9.25;;;;;;;3.56;59.37;100446.41;4415631;32;20163;-90
2022/12/01 06:40:23;;;;;;;19.75;9.23;;;;;;;3.58;59.38;100446.41;4400963;32;32960;-90
2022/12/01 06:42:48;;;;;;;20.17;9.88;;;;;;;3.88;59.39;100431.16;4414476;32;20128;-90
2022/12/01 06:45:14;;;;;;;23.92;9.60;;;;;;;4.02;59.40;100436.38;4402113;32;20400;-90
2022/12/01 06:47:39;;;;;;;20.25;10.13;;;;;;;3.97;59.39;100428.62;4415958;32;20386;-90
2022/12/01 06:50:07;;;;;;;20.05;9.55;;;;;;;3.72;59.38;100438.78;4401641;32;20175;-90
2022/12/01 06:52:33;;;;;;;21.95;8.90;;;;;;;3.87;59.39;100433.72;4408962;32;20100;-90
2022/12/01 06:54:59;;;;;;;20.52;9.15;;;;;;;3.83;59.38;100438.00;4396886;32;20094;-90
2022/12/01 06:57:24;;;;;;;22.67;9.88;;;;;;;3.77;59.39;100432.78;4410052;32;20465;-90
2022/12/01 06:59:50;;;;;;;26.98;9.35;;;;;;;3.80;59.39;100443.16;4408112;32;20132;-90
2022/12/01 07:02:15;;;;;;;21.00;8.75;;;;;;;3.63;59.38;100444.72;4397036;32;36534;-90
2022/12/01 07:04:41;;;;;;;25.27;10.40;;;;;;;3.58;59.38;100449.00;4396211;32;20148;-90
2022/12/01 07:07:06;;;;;;;25.10;10.02;;;;;;;3.66;59.38;100445.59;4397776;32;20105;-90
2022/12/01 07:09:32;;;;;;;24.70;9.90;;;;;;;3.64;59.38;100449.03;4398721;32;20101;-90
2022/12/01 07:11:57;;;;;;;25.37;10.05;;;;;;;3.77;59.39;100443.09;4395993;32;20110;-90
2022/12/01 07:14:23;;;;;;;24.50;9.27;;;;;;;3.98;59.40;100448.38;4398644;32;20113;-91
2022/12/01 07:16:49;;;;;;;21.85;9.90;;;;;;;3.83;59.40;100452.59;4396282;32;20184;-90
2022/12/01 07:19:14;;;;;;;22.05;8.75;;;;;;;3.73;59.38;100448.22;4407962;32;20481;-90
2022/12/01 07:21:40;;;;;;;23.73;9.85;;;;;;;3.68;59.37;100455.91;4404491;32;29066;-90
2022/12/01 07:24:05;;;;;;;20.48;9.73;;;;;;;3.82;59.39;100454.31;4399820;32;20116;-91
2022/12/01 07:26:31;;;;;;;22.13;9.30;;;;;;;3.84;59.40;100450.03;4406480;32;20109;-90
2022/12/01 07:28:56;;;;;;;22.45;9.18;;;;;;;3.88;59.39;100450.91;4406813;32;23126;-90
2022/12/01 07:31:22;;;;;;;21.45;9.48;;;;;;;3.81;59.38;100442.28;4390032;32;20105;-90
2022/12/01 07:33:47;;;;;;;20.17;8.40;;;;;;;3.83;59.38;100453.47;4405100;32;26482;-90
2022/12/01 07:36:13;;;;;;;20.90;8.75;;;;;;;3.77;59.39;100453.41;4412581;32;20144;-91
2022/12/01 07:38:38;;;;;;;26.95;12.88;;;;;;;3.99;59.41;100444.09;4414386;32;20151;-89
2022/12/01 07:41:13;;;;;;;21.42;9.05;;;;;;;4.05;59.40;100445.88;4390822;32;20133;-90
2022/12/01 07:43:39;;;;;;;24.83;11.45;;;;;;;4.09;59.41;100445.88;4414350;32;20093;-90
2022/12/01 07:46:05;;;;;;;25.90;10.68;;;;;;;4.24;59.42;100457.97;4400914;32;33407;-90
2022/12/01 07:48:30;;;;;;;24.98;10.52;;;;;;;4.32;59.41;100453.72;4427296;32;20472;-90
2022/12/01 07:50:56;;;;;;;23.95;9.80;;;;;;;4.21;59.42;100457.94;4394590;32;28874;-91
2022/12/01 07:53:22;;;;;;;19.00;8.10;;;;;;;4.38;59.42;100447.72;4412062;32;20180;-90
2022/12/01 07:55:49;;;;;;;22.73;8.45;;;;;;;4.30;59.42;100450.28;4413723;32;29012;-90
2022/12/01 07:58:14;;;;;;;19.80;9.55;;;;;;;4.46;59.43;100452.06;4414798;32;20091;-90
2022/12/01 08:00:39;;;;;;;20.50;9.13;;;;;;;4.45;59.43;100455.47;4414349;32;20657;-90
2022/12/01 08:03:05;;;;;;;20.20;8.40;;;;;;;4.41;59.42;100463.19;4400935;32;32446;-89
2022/12/01 08:05:30;;;;;;;21.00;8.90;;;;;;;4.55;59.43;100464.13;4414596;32;20258;-90
2022/12/01 08:07:55;;;;;;;34.13;9.27;;;;;;;4.62;59.44;100463.28;4400842;32;32087;-90
2022/12/01 08:10:21;;;;;;;19.98;8.40;;;;;;;4.81;59.45;100454.75;4414037;32;20113;-90
2022/12/01 08:12:46;;;;;;;19.27;8.60;;;;;;;5.05;59.46;100456.53;4413766;32;23369;-90
2022/12/01 08:15:12;;;;;;;25.70;9.32;;;;;;;5.29;59.47;100455.69;4414394;32;20129;-89
2022/12/01 08:17:37;;;;;;;25.08;9.48;;;;;;;5.18;59.47;100455.66;4402933;32;23788;-90
2022/12/01 08:20:03;;;;;;;21.83;9.38;;;;;;;5.13;59.47;100451.38;4413308;32;37140;-90
2022/12/01 08:22:28;;;;;;;25.85;9.68;;;;;;;5.28;59.47;100456.56;4414381;32;20119;-90
2022/12/01 08:24:54;;;;;;;20.08;9.23;;;;;;;5.55;59.49;100443.66;4413701;32;33395;-90
2022/12/01 08:27:19;;;;;;;20.17;8.73;;;;;;;5.77;59.50;100441.91;4413225;32;33374;-90
2022/12/01 08:29:45;;;;;;;26.30;10.45;;;;;;;5.62;59.50;100439.34;4402933;32;20149;-90
2022/12/01 08:32:10;;;;;;;26.17;11.43;;;;;;;5.79;59.50;100442.75;4402336;32;20144;-90
2022/12/01 08:34:40;;;;;;;24.50;11.38;;;;;;;5.73;59.50;100437.63;4413931;32;20750;-90
2022/12/01 08:37:05;;;;;;;20.85;8.93;;;;;;;5.79;59.50;100439.31;4419394;32;20077;-90
2022/12/01 08:39:31;;;;;;;21.10;8.18;;;;;;;5.94;59.51;100441.91;4413427;32;20089;-90
2022/12/01 08:41:56;;;;;;;21.00;9.02;;;;;;;6.04;59.51;100442.75;4415759;32;33816;-90
2022/12/01 08:44:21;;;;;;;20.95;8.85;;;;;;;5.92;59.51;100448.81;4415522;32;34253;-90
2022/12/01 08:46:47;;;;;;;22.05;9.07;;;;;;;6.14;59.52;100449.59;4401107;32;20442;-90
2022/12/01 08:49:12;;;;;;;17.17;8.13;;;;;;;6.34;59.53;100445.22;4395097;32;20116;-90
2022/12/01 08:51:37;;;;;;;14.60;8.05;;;;;;;6.38;59.53;100451.25;4399842;32;29313;-89
2022/12/01 08:54:03;;;;;;;17.40;8.02;;;;;;;6.53;59.54;100456.38;4402213;32;37024;-90
2022/12/01 08:56:34;;;;;;;19.10;8.55;;;;;;;6.67;59.55;100453.72;4427160;32;20607;-89
2022/12/01 08:58:59;;;;;;;18.80;8.75;;;;;;;6.89;59.56;100447.56;4415236;32;20101;-90
2022/12/01 09:01:25;;;;;;;23.27;8.95;;;;;;;6.92;59.56;100449.28;4415466;32;20512;-91
2022/12/01 09:04:07;;;;;;;18.37;8.13;;;;;;;7.01;59.56;100451.78;4413862;32;20145;-90
2022/12/01 09:06:40;;;;;;;24.50;8.90;;;;;;;7.12;59.58;100451.75;4417155;32;20100;-90
2022/12/01 09:09:06;;;;;;;21.33;8.90;;;;;;;7.26;59.58;100445.56;4410890;32;20085;-90
2022/12/01 09:11:32;;;;;;;19.90;8.60;;;;;;;7.46;59.59;100440.25;4411449;32;20165;-90
2022/12/01 09:13:58;;;;;;;18.45;8.38;;;;;;;7.41;59.59;100444.63;4410788;32;20513;-90
2022/12/01 09:16:23;;;;;;;16.23;8.43;;;;;;;7.65;59.60;100439.22;4400551;32;37081;-90
2022/12/01 09:18:48;;;;;;;19.77;8.55;;;;;;;7.73;59.61;100436.56;4400679;32;36432;-90
2022/12/01 09:21:26;;;;;;;16.87;9.45;;;;;;;7.95;59.62;100443.25;4403030;32;27480;-91
2022/12/01 09:23:52;;;;;;;17.70;8.10;;;;;;;8.18;59.63;100437.81;4413790;32;20109;-91
2022/12/01 09:26:17;;;;;;;18.42;8.88;;;;;;;8.06;59.62;100430.19;4409331;32;20469;-91
2022/12/01 09:28:47;;;;;;;13.82;6.90;;;;;;;8.26;59.64;100433.37;4407174;32;20101;-91
2022/12/01 09:31:12;;;;;;;13.77;6.50;;;;;;;8.26;59.64;100424.75;4413907;32;20109;-91
2022/12/01 09:33:38;;;;;;;15.38;6.82;;;;;;;8.32;59.65;100425.56;4406417;32;221721;-90
2022/12/01 09:36:04;;;;;;;15.55;6.53;;;;;;;8.17;59.63;100417.09;4399314;32;20454;-90
2022/12/01 09:38:30;;;;;;;14.45;7.10;;;;;;;8.43;59.64;100417.66;4392607;32;20085;-89
2022/12/01 09:40:55;;;;;;;16.80;8.35;;;;;;;8.38;59.65;100421.19;4414734;32;20116;-91
2022/12/01 09:43:28;;;;;;;17.05;8.05;;;;;;;8.52;59.66;100414.97;4380027;32;20101;-90
2022/12/01 09:45:59;;;;;;;17.83;8.50;;;;;;;8.59;59.66;100414.00;4413776;32;20860;-90
2022/12/01 09:48:42;;;;;;;16.62;8.10;;;;;;;8.56;59.65;100419.22;4409173;32;20745;-91
2022/12/01 09:51:14;;;;;;;18.15;8.32;;;;;;;8.79;59.67;100407.69;4390189;32;20477;-90
2022/12/01 09:53:39;;;;;;;19.42;8.10;;;;;;;8.77;59.67;100409.44;4423066;32;20474;-90
2022/12/01 09:56:05;;;;;;;13.68;6.85;;;;;;;8.75;59.67;100398.19;4400167;32;37747;-91
2022/12/01 09:58:30;;;;;;;13.05;6.75;;;;;;;8.73;59.66;100399.97;4413761;32;20107;-91
2022/12/01 10:00:59;;;;;;;16.95;8.50;;;;;;;8.79;59.67;100399.91;4413152;32;35819;-90
2022/12/01 10:03:28;;;;;;;14.13;7.43;;;;;;;9.01;59.68;100403.88;4413752;32;20125;-91
2022/12/01 10:06:01;;;;;;;19.70;7.97;;;;;;;8.96;59.68;100399.63;4409014;32;20163;-91
2022/12/01 10:08:29;;;;;;;15.93;7.00;;;;;;;8.74;59.66;100399.06;4397712;32;20701;-90
2022/12/01 10:10:57;;;;;;;15.82;7.47;;;;;;;8.89;59.67;100396.28;4408937;32;20860;-90
2022/12/01 10:13:24;;;;;;;19.10;8.60;;;;;;;8.77;59.67;100393.88;4406918;32;20137;-90
2022/12/01 10:15:52;;;;;;;15.90;7.12;;;;;;;8.91;59.68;100390.16;4402592;32;20777;-90
2022/12/01 10:18:21;;;;;;;18.67;7.18;;;;;;;8.80;59.66;100392.09;4418855;32;20094;-91
2022/12/01 10:20:49;;;;;;;17.20;9.95;;;;;;;9.04;59.68;100384.81;4399834;32;20086;-91
2022/12/01 10:23:29;;;;;;;14.63;7.32;;;;;;;9.01;59.68;100383.13;4426222;32;20105;-91
2022/12/01 10:25:56;;;;;;;14.48;7.25;;;;;;;9.09;59.68;100383.00;4424217;32;20497;-90
2022/12/01 10:28:50;;;;;;;20.37;8.07;;;;;;;9.12;59.69;100381.19;4385645;32;20085;-91
2022/12/01 10:31:22;;;;;;;17.58;7.95;;;;;;;9.42;59.71;100374.62;4420589;32;20115;-91
2022/12/01 10:34:00;;;;;;;15.30;7.37;;;;;;;9.34;59.70;100376.50;4406171;32;20101;-92
2022/12/01 10:36:26;;;;;;;17.15;7.07;;;;;;;9.43;59.71;100370.28;4413196;32;20152;-91
2022/12/01 10:38:51;;;;;;;16.05;7.30;;;;;;;9.53;59.71;100364.06;4415351;32;20088;-91
2022/12/01 10:41:17;;;;;;;12.30;7.32;;;;;;;9.52;59.71;100364.94;4412555;32;20442;-91
2022/12/01 10:43:44;;;;;;;16.95;8.93;;;;;;;9.64;59.72;100359.50;4392113;32;20109;-91
2022/12/01 10:46:22;;;;;;;16.35;8.18;;;;;;;9.60;59.72;100351.81;4412747;32;20131;-91
2022/12/01 10:48:52;;;;;;;14.00;7.82;;;;;;;9.67;59.72;100353.38;4424933;32;20108;-91
2022/12/01 10:51:19;;;;;;;19.83;7.40;;;;;;;9.66;59.72;100356.88;4400902;32;20116;-91
2022/12/01 10:53:44;;;;;;;13.25;8.23;;;;;;;9.71;59.71;100358.53;4423907;32;20788;-92
2022/12/01 10:56:17;;;;;;;17.33;7.95;;;;;;;9.78;59.72;100362.72;4412401;32;30134;-91
2022/12/01 10:58:47;;;;;;;15.73;7.87;;;;;;;9.89;59.73;100370.31;4412334;32;20080;-91
2022/12/01 11:01:21;;;;;;;15.15;7.62;;;;;;;9.79;59.73;100360.97;4406419;32;20090;-91
2022/12/01 11:04:00;;;;;;;19.42;8.90;;;;;;;9.68;59.72;100353.34;4409669;32;20091;-91
2022/12/01 11:06:27;;;;;;;15.02;8.00;;;;;;;9.65;59.72;100360.38;4413637;32;20085;-91
2022/12/01 11:08:58;;;;;;;16.75;8.43;;;;;;;9.85;59.73;100360.84;4412955;32;20113;-92
2022/12/01 11:11:36;;;;;;;16.65;8.23;;;;;;;9.65;59.72;100357.75;4406626;32;20527;-92
2022/12/01 11:14:04;;;;;;;18.52;8.60;;;;;;;9.77;59.72;100345.41;4411811;32;20188;-91
2022/12/01 11:16:41;;;;;;;15.85;7.80;;;;;;;9.79;59.73;100346.22;4406007;32;20189;-91
2022/12/01 11:19:18;;;;;;;14.52;8.10;;;;;;;9.67;59.72;100332.59;4414679;32;20415;-92
2022/12/01 11:21:55;;;;;;;18.02;8.00;;;;;;;9.78;59.72;100331.53;4427362;32;20101;-92
2022/12/01 11:24:42;;;;;;;18.50;8.77;;;;;;;9.77;59.72;100323.75;4414625;32;20066;-92
2022/12/01 11:27:31;;;;;;;15.48;7.53;;;;;;;9.87;59.74;100338.28;4414583;32;20165;-92
2022/12/01 11:30:03;;;;;;;21.05;8.85;;;;;;;9.84;59.72;100330.53;4414652;32;20493;-92
2022/12/01 11:32:33;;;;;;;18.30;8.75;;;;;;;9.76;59.72;100320.28;4415001;32;20105;-92
2022/12/01 11:35:02;;;;;;;17.27;7.90;;;;;;;9.70;59.71;100327.34;4414632;32;20618;-92